Jane, Missouri
Current Conditions -  °F | °C
As of 1:55 PM on Thursday 30 Oct 2014 (Local Time) from KVBT Reporting Station
Clear Clear  
Wind Chill: 68°   Ceiling: Unl
Heat Index: 68°   Visibility: 10mi
Dew Point: 45°   Wind: 15mph
Humidity: 43%   Direction: 300°WNW
Pressure: 30.06"   Gusts: 24mph
Location:  36.5706°N, 94.342°W
Report Text: KVBT 301855Z AUTO 30013G21KT 10SM CLR 20/07 A3006 RMK AO1
Loading
Personal Weather Stations






























Interactive Weather Map New forecast layout! Learn more

10-Day Weather Forecast

Advertisements
Track Severe Weather on mobile